Time;durP1;ratioP1;P1;durP2;ratioP2;P2;SDS_P1;SDS_P2;PMS_P1;PMS_P2;Temp;Humidity;BMP_temperature;BMP_pressure;BME280_temperature;BME280_humidity;BME280_pressure;Samples;Min_cycle;Max_cycle;Signal;HPM_P1;HPM_P2
2024/04/21 00:00:27;;;;;;;4.43;2.38;;;11.10;68.60;;;;;;5414285;26;20003;-75
2024/04/21 00:02:53;;;;;;;3.92;2.28;;;11.10;68.60;;;;;;5414476;26;19999;-75
2024/04/21 00:05:18;;;;;;;4.15;1.92;;;11.10;68.70;;;;;;5418494;26;20110;-75
2024/04/21 00:07:44;;;;;;;3.60;2.03;;;11.10;68.70;;;;;;5418631;26;19992;-75
2024/04/21 00:10:10;;;;;;;5.68;2.50;;;11.00;68.70;;;;;;5418057;26;20400;-75
2024/04/21 00:12:36;;;;;;;5.35;2.20;;;11.00;69.00;;;;;;5417735;26;19999;-76
2024/04/21 00:15:05;;;;;;;4.38;2.00;;;11.00;68.70;;;;;;5418094;26;19999;-72
2024/04/21 00:17:30;;;;;;;3.53;2.10;;;11.00;68.90;;;;;;5386438;26;20419;-74
2024/04/21 00:19:56;;;;;;;5.07;2.10;;;10.90;69.00;;;;;;5417797;26;20011;-75
2024/04/21 00:22:22;;;;;;;3.88;2.25;;;11.00;68.80;;;;;;5418411;26;20011;-74
2024/04/21 00:24:47;;;;;;;3.20;2.00;;;11.00;68.90;;;;;;5417934;26;20095;-74
2024/04/21 00:27:13;;;;;;;5.30;2.15;;;11.00;68.70;;;;;;5417908;26;20004;-74
2024/04/21 00:29:38;;;;;;;3.97;2.13;;;10.90;68.70;;;;;;5417664;26;20438;-74
2024/04/21 00:32:04;;;;;;;4.03;1.92;;;10.90;68.60;;;;;;5418040;26;20007;-74
2024/04/21 00:34:30;;;;;;;4.53;2.10;;;10.90;68.50;;;;;;5417863;26;20404;-74
2024/04/21 00:36:55;;;;;;;3.10;1.85;;;10.90;69.00;;;;;;5418025;26;20011;-75
2024/04/21 00:39:21;;;;;;;3.88;2.25;;;10.90;68.90;;;;;;5418179;26;20011;-73
2024/04/21 00:41:47;;;;;;;5.15;2.22;;;10.80;69.60;;;;;;5418208;26;20005;-75
2024/04/21 00:44:12;;;;;;;3.65;2.00;;;10.80;69.00;;;;;;5418027;26;20512;-73
2024/04/21 00:46:39;;;;;;;2.85;1.88;;;10.80;68.80;;;;;;5418305;26;20011;-74
2024/04/21 00:49:06;;;;;;;4.32;2.05;;;10.80;69.10;;;;;;5418035;26;20010;-73
2024/04/21 00:51:34;;;;;;;3.90;2.08;;;10.80;69.10;;;;;;5418401;26;20461;-73
2024/04/21 00:54:01;;;;;;;3.80;1.73;;;10.80;69.00;;;;;;5417584;26;20068;-74
2024/04/21 00:56:27;;;;;;;3.92;2.10;;;10.80;69.10;;;;;;5418186;26;20439;-74
2024/04/21 00:58:54;;;;;;;3.05;1.73;;;10.70;69.20;;;;;;5417495;26;19996;-74
2024/04/21 01:01:21;;;;;;;2.70;1.80;;;10.70;69.30;;;;;;5417562;26;20285;-74
2024/04/21 01:03:46;;;;;;;4.00;1.98;;;10.70;69.30;;;;;;5417319;26;20047;-75
2024/04/21 01:06:12;;;;;;;3.58;1.52;;;10.70;69.00;;;;;;5417564;26;19996;-75
2024/04/21 01:08:38;;;;;;;2.88;1.70;;;10.70;69.20;;;;;;5386463;26;19992;-74
2024/04/21 01:11:03;;;;;;;2.85;1.80;;;10.70;69.50;;;;;;5417766;26;20351;-75
2024/04/21 01:13:29;;;;;;;6.40;2.00;;;10.70;69.10;;;;;;5417292;26;19999;-73
2024/04/21 01:15:55;;;;;;;3.70;2.00;;;10.70;69.30;;;;;;5415638;26;19999;-73
2024/04/21 01:18:21;;;;;;;3.20;2.15;;;10.60;69.40;;;;;;5416029;26;20443;-75
2024/04/21 01:20:47;;;;;;;5.00;2.15;;;10.60;69.30;;;;;;5417198;26;19996;-75
2024/04/21 01:23:13;;;;;;;4.40;2.08;;;10.60;69.30;;;;;;5416637;26;20038;-75
2024/04/21 01:25:39;;;;;;;4.35;1.90;;;10.60;69.50;;;;;;5385892;26;19991;-74
2024/04/21 01:28:05;;;;;;;3.97;1.90;;;10.60;69.30;;;;;;5416645;26;20032;-75
2024/04/21 01:30:32;;;;;;;4.55;2.10;;;10.60;69.40;;;;;;5385232;26;20007;-75
2024/04/21 01:33:01;;;;;;;3.67;2.03;;;10.60;69.40;;;;;;5416305;26;19995;-75
2024/04/21 01:35:28;;;;;;;4.20;1.95;;;10.70;69.40;;;;;;5416356;26;20010;-74
2024/04/21 01:37:54;;;;;;;4.55;1.55;;;10.70;69.30;;;;;;5416370;26;20069;-75
2024/04/21 01:40:20;;;;;;;3.88;1.58;;;10.70;69.30;;;;;;5384610;26;20011;-74
2024/04/21 01:42:46;;;;;;;3.80;2.05;;;10.70;69.40;;;;;;5416490;26;20036;-74
2024/04/21 01:45:12;;;;;;;2.58;1.60;;;10.70;69.40;;;;;;5416599;26;20007;-74
2024/04/21 01:47:37;;;;;;;2.78;1.67;;;10.70;69.30;;;;;;5416871;26;20010;-75
2024/04/21 01:50:03;;;;;;;2.75;1.65;;;10.70;69.30;;;;;;5427531;26;19992;-75
2024/04/21 01:52:29;;;;;;;2.78;1.60;;;10.70;69.10;;;;;;5440387;26;20121;-73
2024/04/21 01:54:55;;;;;;;1.80;1.30;;;10.70;69.00;;;;;;5427772;26;20008;-74
2024/04/21 01:57:20;;;;;;;2.28;1.27;;;10.60;69.00;;;;;;5418364;26;20076;-73
2024/04/21 01:59:46;;;;;;;3.75;1.40;;;10.60;69.00;;;;;;5417765;26;20031;-75
2024/04/21 02:02:12;;;;;;;3.50;1.40;;;10.50;68.80;;;;;;5416682;26;19995;-73
2024/04/21 02:04:37;;;;;;;3.55;1.58;;;10.50;68.90;;;;;;5416672;26;20014;-74
2024/04/21 02:07:05;;;;;;;4.03;1.63;;;10.40;69.10;;;;;;5416823;26;20041;-75
2024/04/21 02:09:31;;;;;;;2.90;1.30;;;10.40;69.20;;;;;;5416831;26;20027;-74
2024/04/21 02:11:57;;;;;;;3.25;1.42;;;10.40;69.20;;;;;;5416462;26;20458;-73
2024/04/21 02:14:23;;;;;;;3.72;1.40;;;10.40;69.10;;;;;;5416990;26;19999;-69
2024/04/21 02:16:48;;;;;;;1.95;1.30;;;10.40;69.00;;;;;;5356621;26;20361;-75
2024/04/21 02:19:14;;;;;;;2.20;1.30;;;10.30;69.10;;;;;;5416619;26;20451;-74
2024/04/21 02:21:40;;;;;;;1.95;1.42;;;10.30;69.10;;;;;;5416655;26;20107;-74
2024/04/21 02:24:06;;;;;;;3.88;1.50;;;10.30;69.40;;;;;;5416326;26;19996;-75
2024/04/21 02:26:32;;;;;;;2.72;1.30;;;10.30;69.30;;;;;;5384260;26;19995;-75
2024/04/21 02:28:58;;;;;;;2.60;1.30;;;10.20;69.30;;;;;;5416697;26;20011;-75
2024/04/21 02:31:23;;;;;;;2.17;1.27;;;10.20;69.40;;;;;;5416332;26;19999;-75
2024/04/21 02:33:49;;;;;;;3.03;1.40;;;10.10;69.50;;;;;;5416265;26;19999;-74
2024/04/21 02:36:16;;;;;;;2.38;1.30;;;10.10;69.50;;;;;;5416184;26;20355;-74
2024/04/21 02:38:42;;;;;;;2.05;1.17;;;10.10;69.80;;;;;;5384863;26;19999;-75
2024/04/21 02:41:08;;;;;;;2.30;1.10;;;10.10;69.50;;;;;;5416364;26;20010;-74
2024/04/21 02:43:36;;;;;;;1.83;1.10;;;10.10;69.30;;;;;;5416082;26;19999;-74
2024/04/21 02:46:02;;;;;;;2.17;1.25;;;10.10;69.80;;;;;;5416209;26;20432;-75
2024/04/21 02:48:29;;;;;;;2.97;1.20;;;10.00;69.50;;;;;;5416232;26;19999;-75
2024/04/21 02:50:55;;;;;;;2.40;1.20;;;10.10;69.40;;;;;;5415932;26;20463;-73
2024/04/21 02:53:21;;;;;;;2.05;0.93;;;10.00;69.60;;;;;;5417383;26;20011;-75
2024/04/21 02:55:46;;;;;;;2.15;1.23;;;10.00;69.60;;;;;;5385753;26;20501;-74
2024/04/21 02:58:12;;;;;;;2.45;1.05;;;10.00;69.90;;;;;;5416460;26;20432;-74
2024/04/21 03:00:38;;;;;;;3.55;1.02;;;10.00;70.40;;;;;;5416505;26;19995;-75
2024/04/21 03:03:04;;;;;;;2.53;1.00;;;10.00;69.60;;;;;;5415899;26;20014;-71
2024/04/21 03:05:30;;;;;;;1.98;0.90;;;10.00;69.80;;;;;;5384261;26;19999;-75
2024/04/21 03:07:57;;;;;;;2.33;1.10;;;10.00;69.70;;;;;;5384083;26;20014;-74
2024/04/21 03:10:23;;;;;;;1.83;0.98;;;9.90;70.80;;;;;;5415536;26;20006;-75
2024/04/21 03:12:49;;;;;;;1.95;1.00;;;9.90;70.80;;;;;;5383809;26;19995;-74
2024/04/21 03:15:15;;;;;;;1.85;0.90;;;9.90;70.90;;;;;;5415144;26;20324;-74
2024/04/21 03:17:41;;;;;;;1.40;0.95;;;10.00;69.90;;;;;;5415263;26;20000;-75
2024/04/21 03:20:07;;;;;;;2.03;1.13;;;9.90;70.70;;;;;;5415616;26;20002;-74
2024/04/21 03:22:33;;;;;;;1.83;1.02;;;9.90;70.80;;;;;;5415770;26;20064;-73
2024/04/21 03:24:59;;;;;;;3.55;1.25;;;9.90;70.70;;;;;;5415711;26;20008;-74
2024/04/21 03:27:25;;;;;;;1.67;1.00;;;9.90;70.70;;;;;;5415766;26;20413;-73
2024/04/21 03:29:51;;;;;;;2.60;0.93;;;9.90;70.70;;;;;;5415269;26;19995;-74
2024/04/21 03:32:16;;;;;;;1.08;0.80;;;9.90;70.50;;;;;;5415246;26;20030;-74
2024/04/21 03:34:44;;;;;;;1.45;1.00;;;9.90;70.50;;;;;;5414951;26;19999;-74
2024/04/21 03:37:11;;;;;;;1.30;0.80;;;9.90;70.30;;;;;;5414678;26;19996;-73
2024/04/21 03:39:36;;;;;;;1.90;0.80;;;9.90;70.20;;;;;;5385926;26;20072;-73
2024/04/21 03:42:02;;;;;;;2.05;0.73;;;9.90;70.20;;;;;;5417685;26;20409;-73
2024/04/21 03:44:28;;;;;;;0.98;0.70;;;10.00;69.90;;;;;;5418444;26;19995;-75
2024/04/21 03:46:54;;;;;;;4.72;1.15;;;10.00;69.10;;;;;;5418444;26;19995;-75
2024/04/21 03:49:19;;;;;;;0.90;0.60;;;10.00;69.00;;;;;;5418361;26;19995;-74
2024/04/21 03:51:45;;;;;;;1.00;0.70;;;9.90;69.90;;;;;;5417995;26;20014;-74
2024/04/21 03:54:11;;;;;;;2.33;0.80;;;9.90;69.80;;;;;;5417803;26;19996;-74
2024/04/21 03:56:37;;;;;;;0.90;0.70;;;9.90;69.80;;;;;;5417689;26;20411;-74
2024/04/21 03:59:03;;;;;;;1.55;0.70;;;9.90;69.70;;;;;;5418281;26;19996;-73
2024/04/21 04:01:28;;;;;;;3.20;0.73;;;9.90;69.70;;;;;;5418074;26;20306;-75
2024/04/21 04:03:54;;;;;;;2.15;0.63;;;9.90;69.60;;;;;;5417773;26;20007;-75
2024/04/21 04:06:21;;;;;;;0.70;0.70;;;9.90;69.50;;;;;;5418005;26;20178;-75
2024/04/21 04:08:46;;;;;;;1.02;0.60;;;9.90;69.50;;;;;;5418016;26;20011;-73
2024/04/21 04:11:12;;;;;;;4.55;0.90;;;9.90;70.00;;;;;;5417695;26;19996;-74
2024/04/21 04:13:38;;;;;;;2.42;0.90;;;10.00;68.40;;;;;;5418018;26;20003;-74
2024/04/21 04:16:03;;;;;;;1.35;0.70;;;9.90;69.30;;;;;;5386298;26;19996;-73
2024/04/21 04:18:29;;;;;;;1.23;0.60;;;9.90;69.20;;;;;;5417954;26;20081;-74
2024/04/21 04:20:55;;;;;;;3.08;0.70;;;10.00;68.90;;;;;;5417768;26;19999;-73
2024/04/21 04:23:20;;;;;;;3.00;1.00;;;10.00;68.10;;;;;;5417958;26;20032;-74
2024/04/21 04:25:46;;;;;;;2.95;0.70;;;10.00;68.10;;;;;;5418259;26;20493;-73
2024/04/21 04:28:12;;;;;;;1.05;0.70;;;10.00;68.10;;;;;;5389443;26;20002;-74
2024/04/21 04:30:37;;;;;;;1.88;0.90;;;10.00;67.80;;;;;;5432161;26;19999;-74
2024/04/21 04:33:03;;;;;;;2.92;0.70;;;10.00;68.00;;;;;;5428823;26;19999;-73
2024/04/21 04:35:29;;;;;;;1.55;0.80;;;10.00;67.70;;;;;;5421334;26;19995;-74
2024/04/21 04:37:54;;;;;;;1.08;0.70;;;10.00;67.70;;;;;;5387958;26;20324;-74
2024/04/21 04:40:20;;;;;;;2.25;1.00;;;10.00;67.70;;;;;;5418863;26;20411;-74
2024/04/21 04:42:48;;;;;;;1.52;0.80;;;10.00;67.70;;;;;;5386595;26;20456;-75
2024/04/21 04:45:15;;;;;;;4.43;1.10;;;9.90;68.70;;;;;;5417587;26;19999;-76
2024/04/21 04:47:41;;;;;;;3.30;0.88;;;10.00;67.80;;;;;;5386296;26;19996;-74
2024/04/21 04:50:07;;;;;;;2.15;0.70;;;10.00;67.90;;;;;;5386049;26;20338;-74
2024/04/21 04:52:34;;;;;;;1.40;0.82;;;10.00;67.70;;;;;;5417507;26;20011;-74
2024/04/21 04:55:01;;;;;;;1.80;0.80;;;10.00;67.70;;;;;;5417268;26;20429;-74
2024/04/21 04:57:27;;;;;;;2.67;0.90;;;10.00;67.80;;;;;;5417693;26;20540;-75
2024/04/21 04:59:52;;;;;;;1.83;0.90;;;10.10;67.80;;;;;;5417830;26;20003;-74
2024/04/21 05:02:18;;;;;;;1.67;0.70;;;10.10;67.70;;;;;;5417698;26;19996;-74
2024/04/21 05:04:44;;;;;;;1.80;0.60;;;10.10;67.70;;;;;;5418111;26;20019;-75
2024/04/21 05:07:10;;;;;;;2.03;0.90;;;10.00;67.70;;;;;;5417941;26;19995;-75
2024/04/21 05:09:36;;;;;;;1.33;0.70;;;10.10;67.80;;;;;;5418270;26;19999;-73
2024/04/21 05:12:02;;;;;;;1.60;0.80;;;10.10;67.60;;;;;;5417491;26;20006;-75
2024/04/21 05:14:27;;;;;;;2.15;1.48;;;10.10;67.50;;;;;;5417517;26;20343;-74
2024/04/21 05:16:53;;;;;;;1.70;0.68;;;10.20;67.70;;;;;;5417597;26;20007;-74
2024/04/21 05:19:19;;;;;;;1.55;0.75;;;10.20;67.50;;;;;;5386311;26;20003;-73
2024/04/21 05:21:44;;;;;;;1.58;0.73;;;10.20;67.50;;;;;;5417663;26;20007;-75
2024/04/21 05:24:10;;;;;;;2.00;1.00;;;10.30;67.40;;;;;;5417194;26;20000;-74
2024/04/21 05:26:35;;;;;;;1.15;0.60;;;10.20;67.20;;;;;;5417380;26;19996;-74
2024/04/21 05:29:01;;;;;;;3.42;0.70;;;10.30;67.20;;;;;;5417217;26;20005;-74
2024/04/21 05:31:27;;;;;;;1.60;0.70;;;10.30;67.10;;;;;;5417342;26;20312;-74
2024/04/21 05:33:53;;;;;;;1.83;0.80;;;10.30;67.10;;;;;;5417082;26;20004;-76
2024/04/21 05:36:18;;;;;;;0.82;0.60;;;10.40;67.10;;;;;;5417277;26;20427;-75
2024/04/21 05:38:44;;;;;;;0.68;0.60;;;10.50;67.10;;;;;;5417017;26;20284;-74
2024/04/21 05:41:10;;;;;;;1.33;0.70;;;10.60;66.60;;;;;;5419295;26;19996;-74
2024/04/21 05:43:35;;;;;;;0.88;0.70;;;10.90;66.50;;;;;;5418318;26;19995;-75
2024/04/21 05:46:02;;;;;;;2.28;0.93;;;12.10;64.60;;;;;;5416828;26;20007;-75
2024/04/21 05:48:28;;;;;;;1.75;0.80;;;13.20;61.70;;;;;;5416251;26;20072;-76
2024/04/21 05:50:54;;;;;;;0.77;0.55;;;13.60;60.10;;;;;;5416831;26;20429;-75
2024/04/21 05:53:19;;;;;;;1.02;0.70;;;14.20;59.30;;;;;;5416646;26;20536;-74
2024/04/21 05:55:46;;;;;;;1.17;0.60;;;14.90;58.30;;;;;;5416889;26;20010;-73
2024/04/21 05:58:11;;;;;;;1.33;0.68;;;15.20;57.30;;;;;;5417088;26;20000;-74
2024/04/21 06:00:37;;;;;;;2.28;0.68;;;15.60;56.30;;;;;;5416056;26;20003;-75
2024/04/21 06:03:04;;;;;;;3.65;0.90;;;16.20;55.20;;;;;;5416480;26;20397;-76
2024/04/21 06:05:30;;;;;;;1.27;0.70;;;16.40;54.60;;;;;;5417287;26;20007;-74
2024/04/21 06:07:55;;;;;;;1.67;0.50;;;16.40;54.30;;;;;;5417253;26;19999;-74
2024/04/21 06:10:21;;;;;;;1.60;0.68;;;16.30;54.80;;;;;;5416696;26;19999;-75
2024/04/21 06:12:48;;;;;;;0.80;0.60;;;16.70;53.70;;;;;;5416404;26;20477;-75
2024/04/21 06:15:15;;;;;;;1.55;0.60;;;17.20;52.80;;;;;;5416578;26;20002;-75
2024/04/21 06:17:40;;;;;;;1.25;0.60;;;17.50;51.90;;;;;;5384801;26;20010;-74
2024/04/21 06:20:07;;;;;;;1.30;0.80;;;17.90;51.00;;;;;;5416512;26;19995;-75
2024/04/21 06:22:33;;;;;;;0.60;0.60;;;18.00;50.60;;;;;;5416440;26;20411;-74
2024/04/21 06:24:59;;;;;;;0.55;0.43;;;18.40;49.90;;;;;;5416177;26;20053;-74
2024/04/21 06:27:25;;;;;;;0.57;0.50;;;18.70;49.70;;;;;;5415984;26;20007;-74
2024/04/21 06:29:50;;;;;;;1.55;0.75;;;18.80;49.30;;;;;;5415764;26;19991;-74
2024/04/21 06:32:16;;;;;;;1.17;0.73;;;19.20;49.10;;;;;;5415660;26;20006;-75
2024/04/21 06:34:42;;;;;;;1.05;0.65;;;19.30;48.30;;;;;;5416456;26;20007;-74
2024/04/21 06:37:07;;;;;;;4.25;1.27;;;19.20;48.10;;;;;;5416213;26;19996;-75
2024/04/21 06:39:34;;;;;;;1.55;0.80;;;19.70;48.10;;;;;;5416071;26;20351;-74
2024/04/21 06:41:59;;;;;;;2.10;1.00;;;19.90;47.80;;;;;;5415870;26;20004;-75
2024/04/21 06:44:25;;;;;;;0.80;0.60;;;19.80;47.10;;;;;;5385038;26;19992;-74
2024/04/21 06:46:50;;;;;;;2.67;0.80;;;20.20;46.70;;;;;;5416895;26;20076;-75
2024/04/21 06:49:16;;;;;;;0.98;0.55;;;20.50;46.40;;;;;;5415916;26;20088;-74
2024/04/21 06:51:42;;;;;;;0.95;0.65;;;20.70;46.00;;;;;;5415984;26;19995;-74
2024/04/21 06:54:07;;;;;;;1.98;0.77;;;20.60;46.20;;;;;;5415925;26;20020;-73
2024/04/21 06:56:33;;;;;;;2.58;0.60;;;20.90;45.60;;;;;;5416125;26;20064;-74
2024/04/21 06:58:58;;;;;;;3.42;1.02;;;20.90;45.50;;;;;;5415921;26;20450;-75
2024/04/21 07:01:24;;;;;;;1.05;0.65;;;20.90;45.50;;;;;;5415943;26;20524;-74
2024/04/21 07:03:50;;;;;;;1.00;0.55;;;21.10;45.30;;;;;;5416848;26;20011;-75
2024/04/21 07:06:15;;;;;;;2.05;0.80;;;21.00;45.00;;;;;;5416767;26;20041;-76
2024/04/21 07:08:41;;;;;;;3.17;1.38;;;21.40;45.30;;;;;;5423684;26;20069;-75
2024/04/21 07:11:07;;;;;;;2.10;0.68;;;21.80;44.80;;;;;;5438538;26;19991;-74
2024/04/21 07:13:32;;;;;;;2.85;1.00;;;21.60;44.40;;;;;;5434648;26;20000;-73
2024/04/21 07:15:58;;;;;;;2.50;1.10;;;21.50;44.50;;;;;;5421370;26;20000;-74
2024/04/21 07:18:24;;;;;;;1.45;0.77;;;21.60;44.40;;;;;;5388990;26;20006;-75
2024/04/21 07:20:49;;;;;;;1.58;0.77;;;21.70;44.20;;;;;;5421316;26;20046;-74
2024/04/21 07:23:15;;;;;;;1.10;0.90;;;22.10;43.60;;;;;;5419451;26;20101;-75
2024/04/21 07:25:41;;;;;;;0.77;0.60;;;22.20;43.20;;;;;;5419449;26;20004;-75
2024/04/21 07:28:07;;;;;;;1.25;0.57;;;21.40;43.50;;;;;;5420012;26;20431;-74
2024/04/21 07:30:34;;;;;;;1.23;0.70;;;20.10;44.50;;;;;;5419207;26;19999;-74
2024/04/21 07:33:00;;;;;;;2.63;0.80;;;19.10;45.50;;;;;;5419202;26;20010;-74
2024/04/21 07:35:26;;;;;;;1.95;0.55;;;18.40;46.40;;;;;;5419037;26;20451;-75
2024/04/21 07:37:51;;;;;;;1.20;0.60;;;17.90;47.10;;;;;;5418835;26;20011;-74
2024/04/21 07:40:17;;;;;;;4.32;1.50;;;17.50;47.60;;;;;;5418284;26;20010;-75
2024/04/21 07:42:44;;;;;;;4.45;1.40;;;17.30;48.10;;;;;;5418806;26;20010;-74
2024/04/21 07:45:09;;;;;;;1.42;0.80;;;17.10;48.30;;;;;;5387338;26;20006;-75
2024/04/21 07:47:35;;;;;;;1.60;0.60;;;17.00;48.40;;;;;;5418567;26;19995;-74
2024/04/21 07:50:02;;;;;;;0.75;0.60;;;17.00;48.60;;;;;;5418604;26;19996;-75
2024/04/21 07:52:28;;;;;;;1.40;0.90;;;16.70;48.60;;;;;;5418473;26;19999;-75
2024/04/21 07:54:54;;;;;;;1.30;0.75;;;16.70;49.00;;;;;;5419544;26;19996;-74
2024/04/21 07:57:19;;;;;;;1.77;0.60;;;16.50;49.10;;;;;;5418551;26;19995;-75
2024/04/21 07:59:45;;;;;;;1.80;0.50;;;16.40;49.00;;;;;;5387434;26;20032;-74
2024/04/21 08:02:11;;;;;;;0.95;0.50;;;16.20;49.00;;;;;;5418805;26;20446;-74
2024/04/21 08:04:36;;;;;;;3.58;0.90;;;16.10;49.10;;;;;;5419060;26;20007;-73
2024/04/21 08:07:03;;;;;;;1.48;0.70;;;16.00;49.00;;;;;;5418648;26;20080;-73
2024/04/21 08:09:29;;;;;;;2.42;0.70;;;16.00;49.20;;;;;;5417381;26;20030;-75
2024/04/21 08:11:55;;;;;;;1.75;0.80;;;16.00;48.90;;;;;;5417875;26;19999;-75
2024/04/21 08:14:20;;;;;;;1.38;0.70;;;15.90;49.30;;;;;;5418072;26;19999;-75
2024/04/21 08:16:46;;;;;;;5.43;2.47;;;15.90;49.70;;;;;;5418679;26;20010;-75
2024/04/21 08:19:12;;;;;;;1.42;0.60;;;15.80;49.70;;;;;;5387137;26;20329;-75
2024/04/21 08:21:37;;;;;;;1.13;0.73;;;15.80;49.70;;;;;;5418225;26;19999;-74
2024/04/21 08:24:03;;;;;;;2.58;1.10;;;15.80;49.80;;;;;;5417777;26;20006;-75
2024/04/21 08:26:29;;;;;;;0.82;0.60;;;15.70;49.70;;;;;;5417837;26;20444;-75
2024/04/21 08:28:54;;;;;;;0.70;0.50;;;15.80;49.90;;;;;;5417463;26;20007;-74
2024/04/21 08:31:20;;;;;;;0.73;0.57;;;15.80;49.70;;;;;;5417782;26;20085;-75
2024/04/21 08:33:46;;;;;;;0.50;0.50;;;15.80;49.60;;;;;;5418049;26;20007;-76
2024/04/21 08:36:12;;;;;;;1.17;0.60;;;15.60;49.30;;;;;;5417746;26;19999;-74
2024/04/21 08:38:40;;;;;;;1.23;0.70;;;15.70;49.50;;;;;;5417846;26;20011;-76
2024/04/21 08:41:09;;;;;;;1.77;0.70;;;15.70;49.60;;;;;;5417947;26;20005;-76
2024/04/21 08:43:36;;;;;;;1.52;0.50;;;15.70;49.10;;;;;;5417784;26;20041;-75
2024/04/21 08:46:02;;;;;;;2.38;0.60;;;15.70;49.20;;;;;;5386203;26;19996;-75
2024/04/21 08:48:29;;;;;;;0.50;0.50;;;15.70;49.20;;;;;;5416970;26;20000;-76
2024/04/21 08:50:55;;;;;;;1.38;0.63;;;15.80;49.30;;;;;;5417610;26;20154;-75
2024/04/21 08:53:21;;;;;;;2.03;0.80;;;15.80;49.10;;;;;;5417606;26;20407;-76
2024/04/21 08:55:48;;;;;;;3.17;0.68;;;15.80;48.70;;;;;;5417595;26;20007;-75
2024/04/21 08:58:15;;;;;;;0.80;0.70;;;15.90;48.80;;;;;;5417936;26;20159;-74
2024/04/21 09:00:41;;;;;;;0.80;0.60;;;16.00;48.80;;;;;;5417616;26;20389;-75
2024/04/21 09:03:08;;;;;;;0.93;0.80;;;16.10;49.00;;;;;;5417923;26;20011;-75
2024/04/21 09:05:33;;;;;;;6.03;3.40;;;16.10;48.70;;;;;;5417767;26;20036;-75
2024/04/21 09:07:59;;;;;;;1.33;0.70;;;16.20;49.10;;;;;;5385979;26;20000;-74
2024/04/21 09:10:26;;;;;;;2.33;0.75;;;16.40;48.70;;;;;;5417647;26;20000;-76
2024/04/21 09:12:52;;;;;;;1.15;0.60;;;16.40;48.60;;;;;;5417602;26;20006;-76
2024/04/21 09:15:18;;;;;;;0.90;0.60;;;16.50;48.30;;;;;;5417721;26;20000;-75
2024/04/21 09:17:44;;;;;;;0.60;0.52;;;16.50;48.00;;;;;;5416862;26;20010;-76
2024/04/21 09:20:10;;;;;;;0.85;0.60;;;16.50;47.70;;;;;;5417588;26;20455;-74
2024/04/21 09:22:36;;;;;;;4.22;0.77;;;16.60;47.90;;;;;;5417421;26;20486;-75
2024/04/21 09:25:03;;;;;;;2.45;0.40;;;16.50;47.50;;;;;;5385747;26;20069;-75
2024/04/21 09:27:29;;;;;;;2.88;0.63;;;16.60;47.30;;;;;;5417730;26;20020;-76
2024/04/21 09:29:57;;;;;;;3.03;0.88;;;16.60;47.20;;;;;;5417849;26;20028;-76
2024/04/21 09:32:33;;;;;;;2.33;1.10;;;16.70;47.50;;;;;;4628528;26;20647;-71
2024/04/21 09:34:58;;;;;;;1.42;0.70;;;16.80;48.10;;;;;;5418463;26;20008;-76
2024/04/21 09:37:25;;;;;;;1.23;0.70;;;16.90;47.30;;;;;;5418286;26;19999;-74
2024/04/21 09:39:51;;;;;;;1.73;0.80;;;16.90;47.20;;;;;;5422489;26;20374;-76
2024/04/21 09:42:20;;;;;;;1.27;0.60;;;16.90;47.00;;;;;;5424369;26;20060;-75
2024/04/21 09:44:49;;;;;;;1.67;0.80;;;16.90;47.30;;;;;;5428325;26;20003;-75
2024/04/21 09:47:19;;;;;;;1.48;0.80;;;17.00;46.80;;;;;;5437069;26;20003;-75
2024/04/21 09:49:45;;;;;;;1.73;1.00;;;17.00;46.60;;;;;;5440106;26;19988;-75
2024/04/21 09:52:12;;;;;;;2.25;0.80;;;17.10;46.70;;;;;;5420628;26;20006;-75
2024/04/21 09:54:38;;;;;;;2.55;1.00;;;17.20;46.80;;;;;;5418708;26;19996;-74
2024/04/21 09:57:07;;;;;;;1.48;0.68;;;17.20;46.40;;;;;;5417134;26;20476;-74
2024/04/21 09:59:34;;;;;;;1.50;0.90;;;17.30;46.60;;;;;;5416916;26;20389;-75
2024/04/21 10:02:01;;;;;;;2.83;1.45;;;17.30;46.30;;;;;;5416863;26;20011;-75
2024/04/21 10:04:29;;;;;;;1.70;1.00;;;17.40;46.40;;;;;;5385597;26;20518;-75
2024/04/21 10:06:56;;;;;;;1.75;0.90;;;17.40;46.30;;;;;;5416729;26;20023;-74
2024/04/21 10:09:22;;;;;;;2.05;1.30;;;17.40;46.10;;;;;;5416795;26;20000;-75
2024/04/21 10:11:49;;;;;;;1.75;0.68;;;17.40;46.00;;;;;;5416796;26;20191;-73
2024/04/21 10:14:16;;;;;;;0.98;0.70;;;17.50;45.80;;;;;;5416880;26;20003;-75
2024/04/21 10:16:42;;;;;;;2.42;0.68;;;17.50;46.50;;;;;;5416669;26;20408;-74
2024/04/21 10:19:08;;;;;;;2.17;0.90;;;17.60;46.00;;;;;;5416673;26;20003;-76
2024/04/21 10:21:37;;;;;;;2.05;1.05;;;17.70;46.20;;;;;;5416414;26;19995;-75
2024/04/21 10:24:04;;;;;;;1.95;0.90;;;17.80;46.10;;;;;;5416191;26;20007;-75
2024/04/21 10:26:30;;;;;;;3.50;0.90;;;17.80;45.80;;;;;;5416129;26;20003;-75
2024/04/21 10:29:12;;;;;;;1.27;0.70;;;17.90;46.30;;;;;;5416530;26;20081;-77
2024/04/21 10:31:38;;;;;;;1.23;0.68;;;18.00;46.30;;;;;;5416470;26;20043;-76
2024/04/21 10:34:12;;;;;;;1.23;0.70;;;18.00;45.40;;;;;;5416702;26;20073;-75
2024/04/21 10:36:46;;;;;;;0.68;0.47;;;18.10;45.40;;;;;;5416718;26;20447;-74
2024/04/21 10:39:24;;;;;;;1.17;0.70;;;18.20;45.30;;;;;;5416492;26;20039;-74
2024/04/21 10:41:56;;;;;;;1.88;0.90;;;18.20;44.90;;;;;;5416598;26;20006;-75
2024/04/21 10:44:22;;;;;;;1.40;0.80;;;18.30;45.10;;;;;;5385292;26;20007;-75
2024/04/21 10:46:48;;;;;;;4.25;0.90;;;18.30;44.50;;;;;;5420603;26;19999;-75
2024/04/21 10:49:13;;;;;;;1.77;0.90;;;18.40;44.80;;;;;;5416686;26;19995;-76
2024/04/21 10:51:39;;;;;;;2.75;0.70;;;18.40;45.00;;;;;;5416870;26;20000;-76
2024/04/21 10:54:07;;;;;;;1.95;0.68;;;18.50;44.80;;;;;;5416662;26;20319;-75
2024/04/21 10:56:36;;;;;;;2.35;0.93;;;18.60;45.20;;;;;;5416314;26;19999;-74
2024/04/21 10:59:04;;;;;;;1.60;0.50;;;18.60;44.50;;;;;;5416040;26;20003;-75
2024/04/21 11:01:29;;;;;;;1.45;0.70;;;18.50;44.30;;;;;;5415648;26;20432;-76
2024/04/21 11:03:55;;;;;;;1.05;0.50;;;18.50;44.40;;;;;;5415190;26;20030;-74
2024/04/21 11:06:21;;;;;;;2.88;0.70;;;18.50;44.10;;;;;;5415872;26;19999;-76
2024/04/21 11:08:47;;;;;;;1.65;1.00;;;18.60;44.20;;;;;;5415841;26;20007;-75
2024/04/21 11:11:15;;;;;;;1.00;0.73;;;18.70;44.10;;;;;;5415381;26;20040;-74
2024/04/21 11:13:41;;;;;;;1.10;0.70;;;18.80;44.10;;;;;;5415624;26;20308;-75
2024/04/21 11:16:13;;;;;;;1.10;0.70;;;18.90;44.10;;;;;;5416088;26;20000;-75
2024/04/21 11:18:39;;;;;;;1.83;0.65;;;18.90;43.90;;;;;;5416376;26;20007;-75
2024/04/21 11:21:05;;;;;;;2.15;0.93;;;19.00;43.50;;;;;;5415928;26;20000;-75
2024/04/21 11:23:32;;;;;;;4.57;1.98;;;19.00;43.70;;;;;;5415039;26;20000;-76
2024/04/21 11:25:59;;;;;;;1.63;0.65;;;19.10;43.80;;;;;;5415350;26;20031;-75
2024/04/21 11:28:25;;;;;;;1.13;0.65;;;19.20;43.60;;;;;;5415313;26;19992;-75
2024/04/21 11:31:12;;;;;;;0.68;0.60;;;19.20;44.20;;;;;;5415226;26;20011;-76
2024/04/21 11:33:38;;;;;;;9.32;6.30;;;19.20;43.40;;;;;;5415701;26;20364;-75
2024/04/21 11:36:12;;;;;;;2.22;0.88;;;19.20;43.40;;;;;;5415743;26;20010;-75
2024/04/21 11:38:38;;;;;;;1.27;0.73;;;19.30;43.20;;;;;;5415509;26;19996;-75
2024/04/21 11:41:04;;;;;;;2.67;0.60;;;19.30;42.70;;;;;;5415292;26;20339;-75
2024/04/21 11:43:30;;;;;;;0.75;0.60;;;19.30;42.80;;;;;;5414885;26;20000;-75
2024/04/21 11:46:03;;;;;;;3.90;0.73;;;19.30;43.00;;;;;;5414632;26;20343;-75
2024/04/21 11:48:33;;;;;;;2.63;0.95;;;19.30;42.40;;;;;;5383498;26;20008;-75
2024/04/21 11:50:59;;;;;;;15.77;6.82;;;19.30;42.70;;;;;;5414549;26;20008;-75
2024/04/21 11:53:25;;;;;;;12.88;6.05;;;19.50;42.80;;;;;;5414580;26;20006;-75
2024/04/21 11:55:51;;;;;;;5.20;1.70;;;19.60;43.10;;;;;;5414872;26;20354;-75
2024/04/21 11:58:17;;;;;;;7.13;4.00;;;19.80;42.60;;;;;;5414547;26;19996;-75
2024/04/21 12:00:42;;;;;;;1.40;0.93;;;19.80;42.20;;;;;;5417233;26;20080;-76
2024/04/21 12:03:08;;;;;;;2.55;1.00;;;19.90;41.90;;;;;;5418162;26;20406;-75
2024/04/21 12:05:34;;;;;;;1.25;0.80;;;20.00;42.30;;;;;;5386685;26;20068;-74
2024/04/21 12:07:59;;;;;;;2.08;1.02;;;20.20;41.60;;;;;;5418319;26;20032;-74
2024/04/21 12:10:25;;;;;;;2.60;0.60;;;20.20;42.00;;;;;;5417933;26;20071;-75
2024/04/21 12:12:51;;;;;;;1.88;0.93;;;20.20;41.40;;;;;;5386947;26;20007;-75
2024/04/21 12:15:17;;;;;;;2.00;0.95;;;20.20;41.10;;;;;;5418812;26;19995;-75
2024/04/21 12:17:42;;;;;;;1.23;0.70;;;20.30;40.80;;;;;;5419029;26;19995;-76
2024/04/21 12:20:08;;;;;;;3.20;1.20;;;20.40;40.50;;;;;;5387554;26;20015;-75
2024/04/21 12:22:34;;;;;;;2.47;1.13;;;20.40;40.60;;;;;;5421362;26;20003;-76
2024/04/21 12:25:00;;;;;;;1.33;0.82;;;20.40;40.90;;;;;;5407826;26;20056;-75
2024/04/21 12:27:25;;;;;;;2.63;1.10;;;20.50;40.70;;;;;;5437263;26;19987;-75
2024/04/21 12:29:52;;;;;;;2.70;1.40;;;20.70;40.50;;;;;;5390770;26;19995;-75
2024/04/21 12:32:17;;;;;;;2.10;0.98;;;20.80;40.30;;;;;;5424040;26;20106;-75
2024/04/21 12:34:43;;;;;;;2.88;0.77;;;20.90;40.40;;;;;;5420498;26;19995;-74
2024/04/21 12:37:09;;;;;;;1.52;0.77;;;21.00;40.60;;;;;;5422275;26;20008;-75
2024/04/21 12:39:35;;;;;;;1.75;0.80;;;21.10;40.50;;;;;;5419808;26;20011;-75
2024/04/21 12:42:01;;;;;;;2.50;0.93;;;21.10;40.20;;;;;;5418530;26;20011;-74